sensor_id;sensor_type;location;lat;lon;timestamp;P1;durP1;ratioP1;P2;durP2;ratioP2
20870;SDS011;10595;51.218;3.452;2024-03-23T00:53:25;23.20;;;4.70;;
20870;SDS011;10595;51.218;3.452;2024-03-23T00:55:51;16.47;;;4.30;;
20870;SDS011;10595;51.218;3.452;2024-03-23T00:58:17;20.10;;;4.17;;
20870;SDS011;10595;51.218;3.452;2024-03-23T01:00:43;14.70;;;4.03;;
20870;SDS011;10595;51.218;3.452;2024-03-23T01:03:09;20.67;;;4.90;;
20870;SDS011;10595;51.218;3.452;2024-03-23T01:05:35;14.23;;;4.80;;
20870;SDS011;10595;51.218;3.452;2024-03-23T01:08:01;17.03;;;4.10;;
20870;SDS011;10595;51.218;3.452;2024-03-23T01:10:27;15.57;;;4.33;;
20870;SDS011;10595;51.218;3.452;2024-03-23T01:12:53;19.47;;;3.97;;
20870;SDS011;10595;51.218;3.452;2024-03-23T01:15:19;16.97;;;4.40;;
20870;SDS011;10595;51.218;3.452;2024-03-23T01:17:45;13.27;;;3.80;;
20870;SDS011;10595;51.218;3.452;2024-03-23T01:20:11;12.80;;;3.83;;
20870;SDS011;10595;51.218;3.452;2024-03-23T01:22:37;14.80;;;4.23;;
20870;SDS011;10595;51.218;3.452;2024-03-23T01:25:03;15.43;;;3.80;;
20870;SDS011;10595;51.218;3.452;2024-03-23T01:27:29;16.37;;;3.67;;
20870;SDS011;10595;51.218;3.452;2024-03-23T01:29:55;11.83;;;3.37;;
20870;SDS011;10595;51.218;3.452;2024-03-23T01:32:21;15.50;;;3.73;;
20870;SDS011;10595;51.218;3.452;2024-03-23T01:34:47;14.33;;;3.80;;
20870;SDS011;10595;51.218;3.452;2024-03-23T01:37:13;20.83;;;4.47;;
20870;SDS011;10595;51.218;3.452;2024-03-23T01:39:39;10.77;;;3.20;;
20870;SDS011;10595;51.218;3.452;2024-03-23T01:42:05;17.03;;;3.53;;
20870;SDS011;10595;51.218;3.452;2024-03-23T01:44:31;12.30;;;3.27;;
20870;SDS011;10595;51.218;3.452;2024-03-23T01:46:57;17.03;;;3.20;;
20870;SDS011;10595;51.218;3.452;2024-03-23T01:49:24;13.10;;;3.43;;
20870;SDS011;10595;51.218;3.452;2024-03-23T01:51:50;15.33;;;3.60;;
20870;SDS011;10595;51.218;3.452;2024-03-23T01:54:16;11.07;;;3.10;;
20870;SDS011;10595;51.218;3.452;2024-03-23T01:56:42;16.67;;;3.53;;
20870;SDS011;10595;51.218;3.452;2024-03-23T01:59:08;10.93;;;3.03;;
20870;SDS011;10595;51.218;3.452;2024-03-23T02:01:34;11.93;;;3.27;;
20870;SDS011;10595;51.218;3.452;2024-03-23T02:04:01;15.40;;;3.30;;
20870;SDS011;10595;51.218;3.452;2024-03-23T02:06:27;12.27;;;3.30;;
20870;SDS011;10595;51.218;3.452;2024-03-23T02:08:53;16.10;;;3.00;;
20870;SDS011;10595;51.218;3.452;2024-03-23T02:11:20;12.20;;;3.30;;
20870;SDS011;10595;51.218;3.452;2024-03-23T02:13:46;16.73;;;2.80;;
20870;SDS011;10595;51.218;3.452;2024-03-23T02:16:12;10.57;;;3.00;;
20870;SDS011;10595;51.218;3.452;2024-03-23T02:18:41;12.93;;;2.80;;
20870;SDS011;10595;51.218;3.452;2024-03-23T02:21:07;12.60;;;2.80;;
20870;SDS011;10595;51.218;3.452;2024-03-23T02:23:33;19.97;;;2.80;;
20870;SDS011;10595;51.218;3.452;2024-03-23T02:25:59;16.27;;;4.07;;
20870;SDS011;10595;51.218;3.452;2024-03-23T02:28:25;9.13;;;3.10;;
20870;SDS011;10595;51.218;3.452;2024-03-23T02:30:51;8.80;;;2.50;;
20870;SDS011;10595;51.218;3.452;2024-03-23T02:33:17;11.33;;;2.50;;
20870;SDS011;10595;51.218;3.452;2024-03-23T02:35:43;10.50;;;2.80;;
20870;SDS011;10595;51.218;3.452;2024-03-23T02:38:09;11.30;;;2.40;;
20870;SDS011;10595;51.218;3.452;2024-03-23T02:40:35;8.30;;;2.40;;
20870;SDS011;10595;51.218;3.452;2024-03-23T02:43:02;15.10;;;3.10;;
20870;SDS011;10595;51.218;3.452;2024-03-23T02:45:28;12.97;;;2.70;;
20870;SDS011;10595;51.218;3.452;2024-03-23T02:47:54;12.07;;;2.73;;
20870;SDS011;10595;51.218;3.452;2024-03-23T02:50:20;13.93;;;2.70;;
20870;SDS011;10595;51.218;3.452;2024-03-23T02:52:47;10.33;;;2.80;;
20870;SDS011;10595;51.218;3.452;2024-03-23T02:55:13;13.13;;;3.70;;
20870;SDS011;10595;51.218;3.452;2024-03-23T02:57:39;17.90;;;3.40;;
20870;SDS011;10595;51.218;3.452;2024-03-23T03:00:06;9.83;;;2.80;;
20870;SDS011;10595;51.218;3.452;2024-03-23T03:02:32;12.17;;;3.43;;
20870;SDS011;10595;51.218;3.452;2024-03-23T03:04:58;15.73;;;2.93;;
20870;SDS011;10595;51.218;3.452;2024-03-23T03:07:24;9.13;;;2.80;;
20870;SDS011;10595;51.218;3.452;2024-03-23T03:09:51;8.67;;;2.63;;
20870;SDS011;10595;51.218;3.452;2024-03-23T03:12:17;13.87;;;3.30;;
20870;SDS011;10595;51.218;3.452;2024-03-23T03:14:43;12.67;;;3.37;;
20870;SDS011;10595;51.218;3.452;2024-03-23T03:17:09;8.67;;;2.60;;
20870;SDS011;10595;51.218;3.452;2024-03-23T03:19:35;15.40;;;2.90;;
20870;SDS011;10595;51.218;3.452;2024-03-23T03:22:01;16.57;;;2.93;;
20870;SDS011;10595;51.218;3.452;2024-03-23T03:24:27;15.00;;;3.23;;
20870;SDS011;10595;51.218;3.452;2024-03-23T03:26:53;12.43;;;2.87;;
20870;SDS011;10595;51.218;3.452;2024-03-23T03:29:19;7.40;;;2.50;;
20870;SDS011;10595;51.218;3.452;2024-03-23T03:31:45;9.27;;;2.70;;
20870;SDS011;10595;51.218;3.452;2024-03-23T03:34:11;10.47;;;2.67;;
20870;SDS011;10595;51.218;3.452;2024-03-23T03:36:37;11.30;;;2.60;;
20870;SDS011;10595;51.218;3.452;2024-03-23T03:39:03;11.13;;;2.47;;
20870;SDS011;10595;51.218;3.452;2024-03-23T03:41:29;17.70;;;3.40;;
20870;SDS011;10595;51.218;3.452;2024-03-23T03:43:55;12.40;;;2.53;;
20870;SDS011;10595;51.218;3.452;2024-03-23T03:46:21;15.00;;;3.00;;
20870;SDS011;10595;51.218;3.452;2024-03-23T03:48:47;13.37;;;2.40;;
20870;SDS011;10595;51.218;3.452;2024-03-23T03:51:14;10.37;;;3.37;;
20870;SDS011;10595;51.218;3.452;2024-03-23T03:53:40;13.80;;;3.07;;
20870;SDS011;10595;51.218;3.452;2024-03-23T03:56:06;8.53;;;2.53;;
20870;SDS011;10595;51.218;3.452;2024-03-23T03:58:32;11.30;;;2.50;;
20870;SDS011;10595;51.218;3.452;2024-03-23T04:00:58;11.40;;;2.43;;
20870;SDS011;10595;51.218;3.452;2024-03-23T04:03:24;19.47;;;2.73;;
20870;SDS011;10595;51.218;3.452;2024-03-23T04:05:53;16.63;;;3.17;;
20870;SDS011;10595;51.218;3.452;2024-03-23T04:08:19;17.30;;;3.13;;
20870;SDS011;10595;51.218;3.452;2024-03-23T04:10:45;15.53;;;2.53;;
20870;SDS011;10595;51.218;3.452;2024-03-23T04:13:12;14.70;;;3.00;;
20870;SDS011;10595;51.218;3.452;2024-03-23T04:15:38;17.70;;;2.80;;
20870;SDS011;10595;51.218;3.452;2024-03-23T04:18:04;16.37;;;2.70;;
20870;SDS011;10595;51.218;3.452;2024-03-23T04:20:30;13.00;;;2.33;;
20870;SDS011;10595;51.218;3.452;2024-03-23T04:22:57;13.53;;;2.40;;
20870;SDS011;10595;51.218;3.452;2024-03-23T04:25:23;12.17;;;3.10;;
20870;SDS011;10595;51.218;3.452;2024-03-23T04:27:49;14.13;;;2.80;;
20870;SDS011;10595;51.218;3.452;2024-03-23T04:30:15;11.97;;;2.23;;
20870;SDS011;10595;51.218;3.452;2024-03-23T04:32:41;13.60;;;2.03;;
20870;SDS011;10595;51.218;3.452;2024-03-23T04:35:07;16.30;;;2.40;;
20870;SDS011;10595;51.218;3.452;2024-03-23T04:37:36;8.23;;;1.93;;
20870;SDS011;10595;51.218;3.452;2024-03-23T04:40:03;12.73;;;2.37;;
20870;SDS011;10595;51.218;3.452;2024-03-23T04:42:29;14.37;;;2.23;;
20870;SDS011;10595;51.218;3.452;2024-03-23T04:44:56;12.00;;;2.57;;
20870;SDS011;10595;51.218;3.452;2024-03-23T04:47:22;18.37;;;2.83;;
20870;SDS011;10595;51.218;3.452;2024-03-23T04:49:48;10.23;;;2.10;;
20870;SDS011;10595;51.218;3.452;2024-03-23T04:52:14;16.87;;;3.07;;
20870;SDS011;10595;51.218;3.452;2024-03-23T04:54:40;15.03;;;1.97;;
20870;SDS011;10595;51.218;3.452;2024-03-23T04:57:07;12.77;;;2.27;;
20870;SDS011;10595;51.218;3.452;2024-03-23T04:59:33;12.60;;;2.40;;
20870;SDS011;10595;51.218;3.452;2024-03-23T05:01:59;10.33;;;2.53;;
20870;SDS011;10595;51.218;3.452;2024-03-23T05:04:25;15.67;;;2.33;;
20870;SDS011;10595;51.218;3.452;2024-03-23T05:06:51;14.27;;;2.00;;
20870;SDS011;10595;51.218;3.452;2024-03-23T05:09:17;12.10;;;2.10;;
20870;SDS011;10595;51.218;3.452;2024-03-23T05:11:43;18.23;;;2.07;;
20870;SDS011;10595;51.218;3.452;2024-03-23T05:14:10;11.37;;;2.13;;
20870;SDS011;10595;51.218;3.452;2024-03-23T05:16:36;17.77;;;2.23;;
20870;SDS011;10595;51.218;3.452;2024-03-23T05:19:02;10.77;;;1.97;;
20870;SDS011;10595;51.218;3.452;2024-03-23T05:21:28;13.90;;;1.87;;
20870;SDS011;10595;51.218;3.452;2024-03-23T05:23:54;13.70;;;1.97;;
20870;SDS011;10595;51.218;3.452;2024-03-23T05:26:21;10.60;;;2.43;;
20870;SDS011;10595;51.218;3.452;2024-03-23T05:28:48;12.07;;;2.13;;
20870;SDS011;10595;51.218;3.452;2024-03-23T05:31:26;8.37;;;2.10;;
20870;SDS011;10595;51.218;3.452;2024-03-23T05:33:52;7.57;;;1.47;;
20870;SDS011;10595;51.218;3.452;2024-03-23T05:36:18;12.63;;;1.67;;
20870;SDS011;10595;51.218;3.452;2024-03-23T05:38:44;12.03;;;2.27;;
20870;SDS011;10595;51.218;3.452;2024-03-23T05:41:10;15.50;;;1.87;;
20870;SDS011;10595;51.218;3.452;2024-03-23T05:43:36;7.70;;;1.80;;
20870;SDS011;10595;51.218;3.452;2024-03-23T05:46:02;12.53;;;2.97;;
20870;SDS011;10595;51.218;3.452;2024-03-23T05:48:32;11.33;;;1.87;;
20870;SDS011;10595;51.218;3.452;2024-03-23T05:50:58;11.50;;;2.50;;
20870;SDS011;10595;51.218;3.452;2024-03-23T05:53:24;11.77;;;2.87;;
20870;SDS011;10595;51.218;3.452;2024-03-23T05:55:50;12.27;;;1.87;;
20870;SDS011;10595;51.218;3.452;2024-03-23T05:58:19;10.70;;;2.03;;
20870;SDS011;10595;51.218;3.452;2024-03-23T06:00:45;8.67;;;2.10;;
20870;SDS011;10595;51.218;3.452;2024-03-23T06:03:11;13.43;;;2.40;;
20870;SDS011;10595;51.218;3.452;2024-03-23T06:05:37;20.37;;;2.63;;
20870;SDS011;10595;51.218;3.452;2024-03-23T06:08:04;11.80;;;1.90;;
20870;SDS011;10595;51.218;3.452;2024-03-23T06:10:30;11.03;;;2.20;;
20870;SDS011;10595;51.218;3.452;2024-03-23T06:12:56;16.00;;;2.87;;
20870;SDS011;10595;51.218;3.452;2024-03-23T06:15:24;11.33;;;2.53;;
20870;SDS011;10595;51.218;3.452;2024-03-23T06:17:50;14.90;;;2.33;;
20870;SDS011;10595;51.218;3.452;2024-03-23T06:20:16;12.30;;;2.30;;
20870;SDS011;10595;51.218;3.452;2024-03-23T06:22:42;14.30;;;2.40;;
20870;SDS011;10595;51.218;3.452;2024-03-23T06:25:08;16.23;;;3.10;;
20870;SDS011;10595;51.218;3.452;2024-03-23T06:27:34;10.00;;;2.47;;
20870;SDS011;10595;51.218;3.452;2024-03-23T06:30:00;13.70;;;2.73;;
20870;SDS011;10595;51.218;3.452;2024-03-23T06:32:30;12.10;;;3.37;;
20870;SDS011;10595;51.218;3.452;2024-03-23T06:34:56;16.17;;;2.73;;
20870;SDS011;10595;51.218;3.452;2024-03-23T06:37:22;13.67;;;3.30;;
20870;SDS011;10595;51.218;3.452;2024-03-23T06:39:48;17.37;;;3.03;;
20870;SDS011;10595;51.218;3.452;2024-03-23T06:42:14;15.03;;;2.83;;
20870;SDS011;10595;51.218;3.452;2024-03-23T06:44:40;10.77;;;2.57;;
20870;SDS011;10595;51.218;3.452;2024-03-23T06:47:06;9.77;;;2.03;;
20870;SDS011;10595;51.218;3.452;2024-03-23T06:49:32;12.93;;;2.63;;
20870;SDS011;10595;51.218;3.452;2024-03-23T06:51:58;13.47;;;2.27;;
20870;SDS011;10595;51.218;3.452;2024-03-23T06:54:24;12.47;;;2.10;;
20870;SDS011;10595;51.218;3.452;2024-03-23T06:56:50;12.93;;;2.20;;
20870;SDS011;10595;51.218;3.452;2024-03-23T06:59:16;13.20;;;2.57;;
20870;SDS011;10595;51.218;3.452;2024-03-23T07:01:42;12.90;;;2.10;;
20870;SDS011;10595;51.218;3.452;2024-03-23T07:04:08;12.73;;;2.60;;
20870;SDS011;10595;51.218;3.452;2024-03-23T07:06:34;14.43;;;2.00;;
20870;SDS011;10595;51.218;3.452;2024-03-23T07:09:07;11.33;;;1.90;;
20870;SDS011;10595;51.218;3.452;2024-03-23T07:11:33;6.23;;;1.80;;
20870;SDS011;10595;51.218;3.452;2024-03-23T07:13:59;9.33;;;1.50;;
20870;SDS011;10595;51.218;3.452;2024-03-23T07:16:26;21.17;;;2.43;;
20870;SDS011;10595;51.218;3.452;2024-03-23T07:18:52;12.70;;;1.87;;
20870;SDS011;10595;51.218;3.452;2024-03-23T07:21:18;9.60;;;2.10;;
20870;SDS011;10595;51.218;3.452;2024-03-23T07:23:44;10.27;;;1.70;;
20870;SDS011;10595;51.218;3.452;2024-03-23T07:26:10;7.23;;;1.70;;
20870;SDS011;10595;51.218;3.452;2024-03-23T07:28:37;10.47;;;1.60;;
20870;SDS011;10595;51.218;3.452;2024-03-23T07:31:06;7.30;;;1.63;;
20870;SDS011;10595;51.218;3.452;2024-03-23T07:33:37;9.37;;;1.97;;
20870;SDS011;10595;51.218;3.452;2024-03-23T07:36:03;11.30;;;2.03;;
20870;SDS011;10595;51.218;3.452;2024-03-23T07:38:30;9.53;;;1.73;;
20870;SDS011;10595;51.218;3.452;2024-03-23T07:41:03;15.30;;;2.20;;
20870;SDS011;10595;51.218;3.452;2024-03-23T07:43:29;10.77;;;1.93;;
20870;SDS011;10595;51.218;3.452;2024-03-23T07:45:55;12.03;;;1.97;;
20870;SDS011;10595;51.218;3.452;2024-03-23T07:48:21;12.70;;;2.53;;
20870;SDS011;10595;51.218;3.452;2024-03-23T07:50:59;9.17;;;1.80;;
20870;SDS011;10595;51.218;3.452;2024-03-23T07:53:26;12.10;;;2.33;;
20870;SDS011;10595;51.218;3.452;2024-03-23T07:55:59;9.67;;;2.00;;
20870;SDS011;10595;51.218;3.452;2024-03-23T07:58:26;11.93;;;2.13;;
20870;SDS011;10595;51.218;3.452;2024-03-23T08:00:52;11.80;;;1.70;;
20870;SDS011;10595;51.218;3.452;2024-03-23T08:03:18;15.00;;;2.20;;
20870;SDS011;10595;51.218;3.452;2024-03-23T08:05:45;11.33;;;2.50;;
20870;SDS011;10595;51.218;3.452;2024-03-23T08:08:11;8.30;;;1.50;;
20870;SDS011;10595;51.218;3.452;2024-03-23T08:10:37;10.50;;;1.60;;
20870;SDS011;10595;51.218;3.452;2024-03-23T08:13:03;9.07;;;1.90;;
20870;SDS011;10595;51.218;3.452;2024-03-23T08:15:30;11.53;;;1.63;;
20870;SDS011;10595;51.218;3.452;2024-03-23T08:17:58;11.90;;;2.00;;
20870;SDS011;10595;51.218;3.452;2024-03-23T08:20:24;9.70;;;1.40;;
20870;SDS011;10595;51.218;3.452;2024-03-23T08:22:50;8.03;;;1.70;;
20870;SDS011;10595;51.218;3.452;2024-03-23T08:25:16;8.10;;;1.80;;
20870;SDS011;10595;51.218;3.452;2024-03-23T08:27:44;7.87;;;1.80;;
20870;SDS011;10595;51.218;3.452;2024-03-23T08:30:10;14.07;;;2.37;;
20870;SDS011;10595;51.218;3.452;2024-03-23T08:32:36;12.60;;;2.37;;
20870;SDS011;10595;51.218;3.452;2024-03-23T08:35:02;13.43;;;2.70;;
20870;SDS011;10595;51.218;3.452;2024-03-23T08:37:28;13.27;;;2.40;;
20870;SDS011;10595;51.218;3.452;2024-03-23T08:39:54;14.87;;;2.23;;
20870;SDS011;10595;51.218;3.452;2024-03-23T08:42:20;13.43;;;2.40;;
20870;SDS011;10595;51.218;3.452;2024-03-23T08:44:47;7.70;;;2.00;;
20870;SDS011;10595;51.218;3.452;2024-03-23T08:47:15;15.63;;;3.33;;
20870;SDS011;10595;51.218;3.452;2024-03-23T08:49:41;11.10;;;2.10;;
20870;SDS011;10595;51.218;3.452;2024-03-23T08:52:07;8.70;;;1.87;;
20870;SDS011;10595;51.218;3.452;2024-03-23T08:54:33;14.67;;;2.80;;
20870;SDS011;10595;51.218;3.452;2024-03-23T08:56:59;11.50;;;2.20;;
20870;SDS011;10595;51.218;3.452;2024-03-23T08:59:25;15.47;;;2.77;;
20870;SDS011;10595;51.218;3.452;2024-03-23T09:01:52;15.17;;;2.83;;
20870;SDS011;10595;51.218;3.452;2024-03-23T09:04:18;12.60;;;3.33;;
20870;SDS011;10595;51.218;3.452;2024-03-23T09:06:44;7.07;;;2.13;;
20870;SDS011;10595;51.218;3.452;2024-03-23T09:09:10;9.57;;;2.13;;
20870;SDS011;10595;51.218;3.452;2024-03-23T09:11:36;9.20;;;2.03;;
20870;SDS011;10595;51.218;3.452;2024-03-23T09:14:02;15.33;;;3.50;;
20870;SDS011;10595;51.218;3.452;2024-03-23T09:16:28;15.83;;;3.00;;
20870;SDS011;10595;51.218;3.452;2024-03-23T09:18:54;7.67;;;1.70;;
20870;SDS011;10595;51.218;3.452;2024-03-23T09:21:20;13.93;;;2.47;;
20870;SDS011;10595;51.218;3.452;2024-03-23T09:23:46;12.77;;;3.53;;
20870;SDS011;10595;51.218;3.452;2024-03-23T09:26:12;6.33;;;1.90;;
20870;SDS011;10595;51.218;3.452;2024-03-23T09:28:38;12.43;;;2.23;;
20870;SDS011;10595;51.218;3.452;2024-03-23T09:31:05;10.53;;;2.00;;
20870;SDS011;10595;51.218;3.452;2024-03-23T09:33:32;9.20;;;1.87;;
20870;SDS011;10595;51.218;3.452;2024-03-23T09:35:58;8.57;;;1.73;;
20870;SDS011;10595;51.218;3.452;2024-03-23T09:38:24;8.60;;;2.07;;
20870;SDS011;10595;51.218;3.452;2024-03-23T09:40:50;12.13;;;2.10;;
20870;SDS011;10595;51.218;3.452;2024-03-23T09:43:18;14.97;;;1.93;;
20870;SDS011;10595;51.218;3.452;2024-03-23T09:45:44;10.90;;;1.77;;
20870;SDS011;10595;51.218;3.452;2024-03-23T09:48:10;10.73;;;1.73;;
20870;SDS011;10595;51.218;3.452;2024-03-23T09:50:37;10.07;;;1.63;;
20870;SDS011;10595;51.218;3.452;2024-03-23T09:53:04;8.63;;;1.47;;
20870;SDS011;10595;51.218;3.452;2024-03-23T09:55:30;8.03;;;1.60;;
20870;SDS011;10595;51.218;3.452;2024-03-23T09:57:56;8.17;;;2.23;;
20870;SDS011;10595;51.218;3.452;2024-03-23T10:00:22;8.87;;;1.97;;
20870;SDS011;10595;51.218;3.452;2024-03-23T10:02:48;11.23;;;2.13;;
20870;SDS011;10595;51.218;3.452;2024-03-23T10:05:24;12.10;;;2.00;;
20870;SDS011;10595;51.218;3.452;2024-03-23T10:07:50;14.83;;;3.60;;
20870;SDS011;10595;51.218;3.452;2024-03-23T10:10:16;12.57;;;2.30;;
20870;SDS011;10595;51.218;3.452;2024-03-23T10:12:46;10.90;;;2.17;;
20870;SDS011;10595;51.218;3.452;2024-03-23T10:15:17;7.00;;;1.60;;
20870;SDS011;10595;51.218;3.452;2024-03-23T10:17:44;11.37;;;1.90;;
20870;SDS011;10595;51.218;3.452;2024-03-23T10:20:10;9.90;;;1.67;;
20870;SDS011;10595;51.218;3.452;2024-03-23T10:22:37;10.87;;;2.07;;
20870;SDS011;10595;51.218;3.452;2024-03-23T10:25:09;13.77;;;2.70;;
20870;SDS011;10595;51.218;3.452;2024-03-23T10:27:35;7.90;;;1.57;;
20870;SDS011;10595;51.218;3.452;2024-03-23T10:30:08;8.50;;;1.57;;
20870;SDS011;10595;51.218;3.452;2024-03-23T10:32:34;6.57;;;1.53;;
20870;SDS011;10595;51.218;3.452;2024-03-23T10:37:48;7.73;;;1.67;;
20870;SDS011;10595;51.218;3.452;2024-03-23T10:40:15;9.97;;;1.67;;
20870;SDS011;10595;51.218;3.452;2024-03-23T10:42:41;6.93;;;1.50;;
20870;SDS011;10595;51.218;3.452;2024-03-23T10:45:08;9.33;;;1.80;;
20870;SDS011;10595;51.218;3.452;2024-03-23T10:47:35;8.73;;;1.67;;
20870;SDS011;10595;51.218;3.452;2024-03-23T10:50:03;9.27;;;1.80;;
20870;SDS011;10595;51.218;3.452;2024-03-23T10:52:35;10.67;;;1.83;;
20870;SDS011;10595;51.218;3.452;2024-03-23T10:55:02;9.80;;;1.67;;
20870;SDS011;10595;51.218;3.452;2024-03-23T10:57:32;11.27;;;2.17;;
20870;SDS011;10595;51.218;3.452;2024-03-23T11:00:01;9.03;;;1.80;;
20870;SDS011;10595;51.218;3.452;2024-03-23T11:02:27;9.63;;;2.03;;
20870;SDS011;10595;51.218;3.452;2024-03-23T11:04:54;12.27;;;1.83;;
20870;SDS011;10595;51.218;3.452;2024-03-23T11:09:50;9.53;;;1.83;;
20870;SDS011;10595;51.218;3.452;2024-03-23T11:15:11;13.53;;;2.23;;
20870;SDS011;10595;51.218;3.452;2024-03-23T11:17:35;8.43;;;1.80;;
20870;SDS011;10595;51.218;3.452;2024-03-23T11:20:02;9.70;;;1.83;;
20870;SDS011;10595;51.218;3.452;2024-03-23T11:27:48;9.23;;;1.97;;
20870;SDS011;10595;51.218;3.452;2024-03-23T11:32:44;8.73;;;1.67;;
20870;SDS011;10595;51.218;3.452;2024-03-23T11:35:11;8.40;;;1.60;;
20870;SDS011;10595;51.218;3.452;2024-03-23T11:38:08;9.33;;;2.00;;
20870;SDS011;10595;51.218;3.452;2024-03-23T11:40:37;9.67;;;1.57;;
20870;SDS011;10595;51.218;3.452;2024-03-23T11:43:07;8.23;;;1.70;;
20870;SDS011;10595;51.218;3.452;2024-03-23T11:45:34;10.77;;;2.13;;
20870;SDS011;10595;51.218;3.452;2024-03-23T11:50:29;7.67;;;1.63;;
20870;SDS011;10595;51.218;3.452;2024-03-23T11:53:16;7.77;;;1.50;;
20870;SDS011;10595;51.218;3.452;2024-03-23T11:55:49;12.73;;;1.77;;
20870;SDS011;10595;51.218;3.452;2024-03-23T11:58:16;6.13;;;1.43;;
20870;SDS011;10595;51.218;3.452;2024-03-23T12:00:43;4.80;;;1.60;;
20870;SDS011;10595;51.218;3.452;2024-03-23T12:03:15;11.50;;;1.70;;
20870;SDS011;10595;51.218;3.452;2024-03-23T12:05:46;7.27;;;1.67;;
20870;SDS011;10595;51.218;3.452;2024-03-23T12:10:47;9.73;;;1.60;;
20870;SDS011;10595;51.218;3.452;2024-03-23T12:13:17;9.37;;;1.63;;
20870;SDS011;10595;51.218;3.452;2024-03-23T12:15:43;9.60;;;1.90;;
20870;SDS011;10595;51.218;3.452;2024-03-23T12:18:09;12.37;;;2.03;;
20870;SDS011;10595;51.218;3.452;2024-03-23T12:20:36;8.80;;;1.70;;
20870;SDS011;10595;51.218;3.452;2024-03-23T12:23:12;3.43;;;1.23;;
20870;SDS011;10595;51.218;3.452;2024-03-23T12:25:38;2.67;;;0.70;;
20870;SDS011;10595;51.218;3.452;2024-03-23T12:28:05;3.80;;;0.70;;
20870;SDS011;10595;51.218;3.452;2024-03-23T12:30:32;3.03;;;0.70;;
20870;SDS011;10595;51.218;3.452;2024-03-23T12:32:58;3.17;;;0.60;;
20870;SDS011;10595;51.218;3.452;2024-03-23T12:35:24;2.73;;;0.60;;
20870;SDS011;10595;51.218;3.452;2024-03-23T12:37:50;4.13;;;0.73;;
20870;SDS011;10595;51.218;3.452;2024-03-23T12:40:16;5.57;;;1.30;;
20870;SDS011;10595;51.218;3.452;2024-03-23T12:42:42;5.17;;;1.33;;
20870;SDS011;10595;51.218;3.452;2024-03-23T12:45:08;3.30;;;0.67;;
20870;SDS011;10595;51.218;3.452;2024-03-23T12:47:34;5.50;;;1.50;;
20870;SDS011;10595;51.218;3.452;2024-03-23T12:50:01;4.97;;;1.83;;
20870;SDS011;10595;51.218;3.452;2024-03-23T12:52:27;7.27;;;1.80;;
20870;SDS011;10595;51.218;3.452;2024-03-23T12:54:56;6.57;;;1.57;;
20870;SDS011;10595;51.218;3.452;2024-03-23T12:57:23;8.20;;;1.70;;
20870;SDS011;10595;51.218;3.452;2024-03-23T12:59:49;11.60;;;2.13;;
20870;SDS011;10595;51.218;3.452;2024-03-23T13:02:17;10.37;;;2.57;;
20870;SDS011;10595;51.218;3.452;2024-03-23T13:04:43;7.27;;;1.37;;
20870;SDS011;10595;51.218;3.452;2024-03-23T13:07:09;6.47;;;1.30;;
20870;SDS011;10595;51.218;3.452;2024-03-23T13:09:35;8.10;;;2.40;;
20870;SDS011;10595;51.218;3.452;2024-03-23T13:12:01;6.93;;;1.53;;
20870;SDS011;10595;51.218;3.452;2024-03-23T13:14:27;11.77;;;2.43;;
20870;SDS011;10595;51.218;3.452;2024-03-23T13:16:53;10.63;;;1.80;;
20870;SDS011;10595;51.218;3.452;2024-03-23T13:19:19;8.43;;;1.90;;
20870;SDS011;10595;51.218;3.452;2024-03-23T13:21:45;10.87;;;1.87;;
20870;SDS011;10595;51.218;3.452;2024-03-23T13:24:12;7.97;;;1.43;;
20870;SDS011;10595;51.218;3.452;2024-03-23T13:26:38;10.93;;;1.63;;
20870;SDS011;10595;51.218;3.452;2024-03-23T13:29:04;7.93;;;2.13;;
20870;SDS011;10595;51.218;3.452;2024-03-23T13:31:30;6.07;;;1.43;;
20870;SDS011;10595;51.218;3.452;2024-03-23T13:33:55;7.00;;;2.03;;
20870;SDS011;10595;51.218;3.452;2024-03-23T13:36:21;6.83;;;1.70;;
20870;SDS011;10595;51.218;3.452;2024-03-23T13:38:47;6.90;;;1.83;;
20870;SDS011;10595;51.218;3.452;2024-03-23T13:41:13;9.37;;;1.70;;
20870;SDS011;10595;51.218;3.452;2024-03-23T13:43:39;10.73;;;1.90;;
20870;SDS011;10595;51.218;3.452;2024-03-23T13:46:06;8.23;;;1.80;;
20870;SDS011;10595;51.218;3.452;2024-03-23T13:48:32;11.73;;;1.70;;
20870;SDS011;10595;51.218;3.452;2024-03-23T13:50:59;6.63;;;1.73;;
20870;SDS011;10595;51.218;3.452;2024-03-23T13:53:25;5.77;;;2.10;;
20870;SDS011;10595;51.218;3.452;2024-03-23T13:55:51;9.93;;;2.00;;
20870;SDS011;10595;51.218;3.452;2024-03-23T13:58:18;7.73;;;1.90;;
20870;SDS011;10595;51.218;3.452;2024-03-23T14:00:44;5.07;;;1.50;;
20870;SDS011;10595;51.218;3.452;2024-03-23T14:03:10;5.67;;;1.13;;
20870;SDS011;10595;51.218;3.452;2024-03-23T14:05:36;4.67;;;1.10;;
20870;SDS011;10595;51.218;3.452;2024-03-23T14:08:04;5.87;;;1.10;;
20870;SDS011;10595;51.218;3.452;2024-03-23T14:10:30;2.67;;;0.70;;
20870;SDS011;10595;51.218;3.452;2024-03-23T14:12:56;4.43;;;1.30;;
20870;SDS011;10595;51.218;3.452;2024-03-23T14:15:22;4.67;;;1.43;;
20870;SDS011;10595;51.218;3.452;2024-03-23T14:17:48;4.80;;;1.40;;
20870;SDS011;10595;51.218;3.452;2024-03-23T14:20:14;3.33;;;1.20;;
20870;SDS011;10595;51.218;3.452;2024-03-23T14:22:40;7.03;;;1.60;;
20870;SDS011;10595;51.218;3.452;2024-03-23T14:25:07;7.83;;;1.20;;
20870;SDS011;10595;51.218;3.452;2024-03-23T14:27:33;5.97;;;1.50;;
20870;SDS011;10595;51.218;3.452;2024-03-23T14:30:02;7.53;;;1.33;;
20870;SDS011;10595;51.218;3.452;2024-03-23T14:32:29;8.13;;;1.67;;
20870;SDS011;10595;51.218;3.452;2024-03-23T14:34:58;7.97;;;1.87;;
20870;SDS011;10595;51.218;3.452;2024-03-23T14:37:24;10.23;;;1.70;;
20870;SDS011;10595;51.218;3.452;2024-03-23T14:39:50;7.10;;;1.63;;
20870;SDS011;10595;51.218;3.452;2024-03-23T14:42:16;7.23;;;1.60;;
20870;SDS011;10595;51.218;3.452;2024-03-23T14:44:42;6.37;;;1.53;;
20870;SDS011;10595;51.218;3.452;2024-03-23T14:47:08;4.20;;;1.60;;
20870;SDS011;10595;51.218;3.452;2024-03-23T14:49:34;6.87;;;1.20;;
20870;SDS011;10595;51.218;3.452;2024-03-23T14:52:01;6.07;;;1.50;;
20870;SDS011;10595;51.218;3.452;2024-03-23T14:54:27;5.13;;;1.30;;
20870;SDS011;10595;51.218;3.452;2024-03-23T14:56:53;3.53;;;0.80;;
20870;SDS011;10595;51.218;3.452;2024-03-23T14:59:19;5.17;;;1.20;;
20870;SDS011;10595;51.218;3.452;2024-03-23T15:01:45;5.43;;;1.40;;
20870;SDS011;10595;51.218;3.452;2024-03-23T15:04:11;4.13;;;1.20;;
20870;SDS011;10595;51.218;3.452;2024-03-23T15:06:37;6.30;;;1.50;;
20870;SDS011;10595;51.218;3.452;2024-03-23T15:09:03;5.23;;;1.23;;
20870;SDS011;10595;51.218;3.452;2024-03-23T15:11:34;8.93;;;1.97;;
20870;SDS011;10595;51.218;3.452;2024-03-23T15:14:00;3.17;;;1.23;;
20870;SDS011;10595;51.218;3.452;2024-03-23T15:16:26;11.17;;;2.67;;
20870;SDS011;10595;51.218;3.452;2024-03-23T15:18:52;9.63;;;2.37;;
20870;SDS011;10595;51.218;3.452;2024-03-23T15:21:18;7.63;;;1.57;;
20870;SDS011;10595;51.218;3.452;2024-03-23T15:23:47;5.57;;;1.37;;
20870;SDS011;10595;51.218;3.452;2024-03-23T15:26:13;7.47;;;1.43;;
20870;SDS011;10595;51.218;3.452;2024-03-23T15:28:40;5.93;;;1.87;;
20870;SDS011;10595;51.218;3.452;2024-03-23T15:31:18;10.07;;;1.77;;
20870;SDS011;10595;51.218;3.452;2024-03-23T15:33:44;9.10;;;1.60;;
20870;SDS011;10595;51.218;3.452;2024-03-23T15:36:10;9.10;;;1.77;;
20870;SDS011;10595;51.218;3.452;2024-03-23T15:38:36;6.27;;;1.50;;
20870;SDS011;10595;51.218;3.452;2024-03-23T15:41:03;7.43;;;1.47;;
20870;SDS011;10595;51.218;3.452;2024-03-23T15:43:29;6.83;;;1.33;;
20870;SDS011;10595;51.218;3.452;2024-03-23T15:46:03;6.03;;;1.30;;
20870;SDS011;10595;51.218;3.452;2024-03-23T15:48:29;6.73;;;1.60;;
20870;SDS011;10595;51.218;3.452;2024-03-23T15:50:59;7.73;;;1.50;;